createdAt,value
2022-09-17T00:04:54.848Z,1.20
2022-09-17T00:09:56.492Z,1.33
2022-09-17T00:14:58.268Z,1.60
2022-09-17T00:19:59.796Z,1.20
2022-09-17T00:25:01.416Z,1.60
2022-09-17T00:30:03.610Z,1.50
2022-09-17T00:35:05.679Z,1.30
2022-09-17T00:40:08.040Z,1.45
2022-09-17T00:45:09.996Z,1.30
2022-09-17T00:50:23.558Z,1.42
2022-09-17T00:55:31.761Z,1.30
2022-09-17T01:00:33.517Z,1.20
2022-09-17T01:05:35.088Z,1.33
2022-09-17T01:10:46.977Z,1.52
2022-09-17T01:15:51.141Z,0.98
2022-09-17T01:21:22.002Z,1.23
2022-09-17T01:26:54.803Z,1.38
2022-09-17T01:32:03.243Z,1.30
2022-09-17T01:37:14.606Z,1.20
2022-09-17T01:42:25.522Z,1.52
2022-09-17T01:47:32.786Z,1.30
2022-09-17T01:52:36.425Z,1.00
2022-09-17T01:57:47.425Z,1.20
2022-09-17T02:03:06.039Z,1.13
2022-09-17T02:08:16.057Z,1.13
2022-09-17T02:13:24.653Z,1.20
2022-09-17T02:18:45.639Z,1.00
2022-09-17T02:24:03.861Z,1.10
2022-09-17T02:29:16.424Z,1.10
2022-09-17T02:34:18.337Z,1.23
2022-09-17T02:39:19.866Z,1.13
2022-09-17T02:44:46.665Z,1.42
2022-09-17T02:50:06.688Z,1.33
2022-09-17T02:55:29.782Z,0.93
2022-09-17T03:00:31.551Z,0.90
2022-09-17T03:05:34.397Z,1.10
2022-09-17T03:10:35.919Z,1.17
2022-09-17T03:15:37.584Z,1.10
2022-09-17T03:20:39.127Z,1.10
2022-09-17T03:25:40.648Z,1.33
2022-09-17T03:30:46.216Z,1.30
2022-09-17T03:35:48.096Z,1.25
2022-09-17T03:40:59.212Z,1.10
2022-09-17T03:46:00.961Z,1.08
2022-09-17T03:51:03.077Z,1.08
2022-09-17T03:56:06.597Z,1.17
2022-09-17T04:01:08.139Z,1.30
2022-09-17T04:06:09.672Z,1.30
2022-09-17T04:11:11.328Z,1.23
2022-09-17T04:16:12.999Z,1.20
2022-09-17T04:21:14.682Z,1.20
2022-09-17T04:26:16.221Z,1.23
2022-09-17T04:31:17.813Z,1.30
2022-09-17T04:36:19.472Z,1.30
2022-09-17T04:41:20.986Z,1.40
2022-09-17T04:46:22.595Z,1.30
2022-09-17T04:51:24.164Z,1.55
2022-09-17T04:56:25.860Z,1.30
2022-09-17T05:01:27.580Z,1.33
2022-09-17T05:06:29.112Z,1.48
2022-09-17T05:11:30.662Z,1.20
2022-09-17T05:16:32.294Z,1.45
2022-09-17T05:21:33.869Z,1.17
2022-09-17T05:26:35.774Z,1.73
2022-09-17T05:31:37.454Z,1.50
2022-09-17T05:36:39.180Z,1.30
2022-09-17T05:41:46.510Z,1.20
2022-09-17T05:46:53.471Z,1.50
2022-09-17T05:51:55.133Z,1.17
2022-09-17T05:56:56.650Z,1.20
2022-09-17T06:01:58.306Z,1.20
2022-09-17T06:06:59.974Z,1.27
2022-09-17T06:12:04.978Z,1.10
2022-09-17T06:17:09.512Z,1.10
2022-09-17T06:22:13.300Z,1.30
2022-09-17T06:27:17.197Z,1.20
2022-09-17T06:32:21.901Z,1.30
2022-09-17T06:37:31.536Z,1.05
2022-09-17T06:42:33.153Z,1.38
2022-09-17T06:47:37.289Z,1.00
2022-09-17T06:52:39.007Z,0.80
2022-09-17T06:57:40.571Z,1.10
2022-09-17T07:02:42.262Z,0.98
2022-09-17T07:07:43.932Z,0.90
2022-09-17T07:12:50.081Z,0.80
2022-09-17T07:17:51.728Z,0.77
2022-09-17T07:22:57.424Z,0.75
2022-09-17T07:27:59.705Z,0.80
2022-09-17T07:33:02.353Z,1.20
2022-09-17T07:38:03.922Z,1.80
2022-09-17T07:43:05.520Z,2.08
2022-09-17T07:48:07.022Z,2.00
2022-09-17T07:53:08.537Z,2.50
2022-09-17T07:58:10.074Z,2.45
2022-09-17T08:03:11.651Z,2.90
2022-09-17T08:08:14.231Z,2.65
2022-09-17T08:13:17.250Z,3.17
2022-09-17T08:18:18.907Z,2.80
2022-09-17T08:23:20.555Z,2.72
2022-09-17T08:28:23.934Z,3.03
2022-09-17T08:33:25.545Z,2.80
2022-09-17T08:38:34.555Z,3.05
2022-09-17T08:43:49.418Z,2.50
2022-09-17T08:49:25.037Z,2.75
2022-09-17T08:54:33.116Z,2.63
2022-09-17T08:59:41.348Z,3.17
2022-09-17T09:05:02.132Z,2.72
2022-09-17T09:10:05.479Z,2.47
2022-09-17T09:15:19.097Z,2.60
2022-09-17T09:20:30.082Z,2.45
2022-09-17T09:25:37.138Z,2.17
2022-09-17T09:30:55.695Z,2.10
2022-09-17T09:35:57.337Z,2.38
2022-09-17T09:41:15.578Z,2.17
2022-09-17T09:46:44.570Z,1.92
2022-09-17T09:52:07.338Z,2.08
2022-09-17T09:57:14.344Z,2.15
2022-09-17T10:02:16.869Z,2.00
2022-09-17T10:07:18.583Z,1.73
2022-09-17T10:12:21.610Z,2.05
2022-09-17T10:17:25.393Z,1.35
2022-09-17T10:22:32.654Z,0.98
2022-09-17T10:27:36.762Z,1.30
2022-09-17T10:32:38.345Z,1.40
2022-09-17T10:37:44.188Z,1.33
2022-09-17T10:42:50.269Z,1.55
2022-09-17T10:47:52.048Z,1.60
2022-09-17T10:52:58.778Z,1.65
2022-09-17T10:58:58.942Z,1.67
2022-09-17T11:04:16.242Z,1.45
2022-09-17T11:09:20.508Z,1.45
2022-09-17T11:14:49.393Z,1.40
2022-09-17T11:19:55.463Z,1.27
2022-09-17T11:25:19.866Z,1.20
2022-09-17T11:30:23.254Z,1.80
2022-09-17T11:35:33.650Z,1.50
2022-09-17T11:40:40.678Z,1.63
2022-09-17T11:45:51.980Z,1.67
2022-09-17T11:50:58.379Z,1.40
2022-09-17T11:56:09.356Z,1.13
2022-09-17T12:01:31.984Z,1.48
2022-09-17T12:06:46.979Z,1.30
2022-09-17T12:12:01.140Z,1.40
2022-09-17T12:17:03.611Z,1.50
2022-09-17T12:22:10.781Z,2.03
2022-09-17T12:27:38.900Z,1.60
2022-09-17T12:33:24.863Z,1.73
2022-09-17T12:38:44.970Z,2.10
2022-09-17T12:44:23.581Z,1.40
2022-09-17T12:49:47.943Z,1.73
2022-09-17T12:55:12.729Z,1.70
2022-09-17T13:00:15.965Z,1.95
2022-09-17T13:05:35.847Z,1.70
2022-09-17T13:11:01.752Z,1.90
2022-09-17T13:16:18.320Z,1.55
2022-09-17T13:21:32.472Z,1.52
2022-09-17T13:26:36.705Z,1.63
2022-09-17T13:31:38.174Z,1.23
2022-09-17T13:36:49.233Z,1.20
2022-09-17T13:42:02.184Z,1.17
2022-09-17T13:47:17.488Z,1.48
2022-09-17T13:52:51.650Z,1.08
2022-09-17T13:57:53.238Z,1.08
2022-09-17T14:02:54.988Z,1.10
2022-09-17T14:08:14.871Z,1.20
2022-09-17T14:13:25.332Z,1.48
2022-09-17T14:18:27.256Z,1.65
2022-09-17T14:23:28.849Z,1.50
2022-09-17T14:28:38.906Z,1.33
2022-09-17T14:33:40.534Z,1.38
2022-09-17T14:38:45.454Z,1.45
2022-09-17T14:44:02.598Z,1.88
2022-09-17T14:49:19.683Z,2.08
2022-09-17T14:54:32.336Z,1.80
2022-09-17T14:59:43.237Z,1.90
2022-09-17T15:04:44.786Z,1.70
2022-09-17T15:09:46.590Z,1.70
2022-09-17T15:14:48.406Z,1.88
2022-09-17T15:19:52.578Z,1.70
2022-09-17T15:24:57.241Z,1.60
2022-09-17T15:30:06.556Z,1.95
2022-09-17T15:35:14.064Z,1.65
2022-09-17T15:40:25.843Z,1.85
2022-09-17T15:45:29.591Z,2.00
2022-09-17T15:50:34.023Z,1.70
2022-09-17T15:55:38.253Z,3.58
2022-09-17T16:00:39.830Z,2.67
2022-09-17T16:05:47.695Z,1.88
2022-09-17T16:10:49.374Z,1.83
2022-09-17T16:15:50.988Z,1.50
2022-09-17T16:20:52.527Z,1.60
2022-09-17T16:25:54.055Z,2.20
2022-09-17T16:30:56.058Z,5.90
2022-09-17T16:35:58.684Z,3.15
2022-09-17T16:41:00.220Z,2.30
2022-09-17T16:46:03.896Z,1.40
2022-09-17T16:51:09.594Z,1.75
2022-09-17T16:56:13.243Z,2.03
2022-09-17T17:01:16.033Z,2.00
2022-09-17T17:06:19.204Z,2.35
2022-09-17T17:11:20.762Z,2.20
2022-09-17T17:16:23.795Z,2.00
2022-09-17T17:21:25.375Z,1.80
2022-09-17T17:26:26.905Z,2.90
2022-09-17T17:31:28.904Z,2.65
2022-09-17T17:36:31.958Z,2.70
2022-09-17T17:41:33.502Z,5.05
2022-09-17T17:46:35.087Z,10.55
2022-09-17T17:51:36.730Z,3.00
2022-09-17T17:56:38.536Z,1.65
2022-09-17T18:01:40.254Z,1.40
2022-09-17T18:06:42.719Z,1.15
2022-09-17T18:11:44.245Z,1.48
2022-09-17T18:16:45.747Z,1.30
2022-09-17T18:21:47.266Z,1.35
2022-09-17T18:26:48.837Z,1.30
2022-09-17T18:31:50.574Z,1.23
2022-09-17T18:36:52.230Z,0.90
2022-09-17T18:41:53.795Z,1.10
2022-09-17T18:46:55.530Z,1.23
2022-09-17T18:51:57.262Z,0.93
2022-09-17T18:56:58.930Z,1.00
2022-09-17T19:02:00.546Z,1.42
2022-09-17T19:07:02.200Z,1.02
2022-09-17T19:12:04.109Z,1.25
2022-09-17T19:17:05.707Z,1.20
2022-09-17T19:22:08.232Z,1.35
2022-09-17T19:27:09.862Z,1.10
2022-09-17T19:32:11.713Z,1.33
2022-09-17T19:37:13.283Z,1.10
2022-09-17T19:42:14.816Z,1.33
2022-09-17T19:47:16.320Z,1.10
2022-09-17T19:52:21.044Z,0.93
2022-09-17T19:57:22.547Z,1.00
2022-09-17T20:02:24.299Z,1.10
2022-09-17T20:07:28.731Z,0.90
2022-09-17T20:12:30.301Z,1.02
2022-09-17T20:17:31.820Z,1.25
2022-09-17T20:22:33.344Z,1.17
2022-09-17T20:27:34.851Z,1.10
2022-09-17T20:32:36.465Z,1.00
2022-09-17T20:38:33.109Z,1.20
2022-09-17T20:42:59.551Z,1.38
2022-09-17T20:48:01.199Z,0.90
2022-09-17T20:53:02.731Z,1.10
2022-09-17T20:58:05.942Z,1.13
2022-09-17T21:03:07.453Z,0.98
2022-09-17T21:08:09.075Z,0.73
2022-09-17T21:13:10.851Z,1.00
2022-09-17T21:18:15.682Z,1.00
2022-09-17T21:23:22.747Z,0.80
2022-09-17T21:28:24.262Z,0.80
2022-09-17T21:33:25.821Z,0.77
2022-09-17T21:38:28.461Z,0.70
2022-09-17T21:43:31.110Z,0.90
2022-09-17T21:48:35.159Z,1.20
2022-09-17T21:53:36.828Z,0.70
2022-09-17T21:58:38.512Z,0.90
2022-09-17T22:03:40.476Z,0.90
2022-09-17T22:08:42.025Z,1.17
2022-09-17T22:13:52.228Z,1.02
2022-09-17T22:18:53.783Z,0.70
2022-09-17T22:23:57.783Z,0.95
2022-09-17T22:29:04.640Z,0.85
2022-09-17T22:34:11.066Z,0.73
2022-09-17T22:39:12.722Z,0.82
2022-09-17T22:44:18.656Z,0.90
2022-09-17T22:49:20.288Z,0.98
2022-09-17T22:54:21.822Z,0.88
2022-09-17T22:59:23.402Z,0.80
2022-09-17T23:04:25.072Z,0.80
2022-09-17T23:09:26.593Z,0.70
2022-09-17T23:14:28.359Z,0.80
2022-09-17T23:19:29.968Z,0.90
2022-09-17T23:24:34.294Z,0.70
2022-09-17T23:29:35.819Z,0.90
2022-09-17T23:34:37.792Z,0.80
2022-09-17T23:39:41.329Z,0.80
2022-09-17T23:44:42.872Z,0.68
2022-09-17T23:49:44.435Z,0.80
2022-09-17T23:54:45.963Z,0.88
2022-09-17T23:59:47.491Z,0.98
